Rochdale, United Kingdom
Current Conditions -  °F | °C
As of 2:20 AM on Sunday 23 Nov 2014 (Local Time) from EGCC Reporting Station
Clear Clear  
Wind Chill: 45°   Ceiling: Unl
Heat Index: 45°   Visibility: 4mi
Dew Point: 45°   Wind: 3mph
Humidity: 100%   Direction: 220°SW
Pressure: 30"   Gusts: NA
Location:  53.62°N, 2.17°W
Report Text: EGCC 230220Z AUTO 22003KT 7000 NCD 07/07 Q1016
Loading
Personal Weather Stations






























Interactive Weather Map New forecast layout! Learn more

10-Day Weather Forecast

Advertisements
Track Severe Weather on mobile